createdAt,value
2022-09-17T00:01:19.769Z,99318.91
2022-09-17T00:04:21.885Z,99313.47
2022-09-17T00:07:10.896Z,99320.00
2022-09-17T00:10:29.957Z,99328.47
2022-09-17T00:13:19.314Z,99326.44
2022-09-17T00:15:56.220Z,99327.09
2022-09-17T00:18:44.599Z,99320.75
2022-09-17T00:21:50.524Z,99319.94
2022-09-17T00:24:23.359Z,99319.38
2022-09-17T00:27:33.121Z,99309.19
2022-09-17T00:30:02.698Z,99310.03
2022-09-17T00:32:37.417Z,99307.16
2022-09-17T00:35:27.749Z,99300.22
2022-09-17T00:38:18.711Z,99299.31
2022-09-17T00:41:08.686Z,99292.22
2022-09-17T00:43:53.678Z,99282.69
2022-09-17T00:46:45.981Z,99275.06
2022-09-17T00:50:10.120Z,99278.94
2022-09-17T00:53:14.729Z,99268.38
2022-09-17T00:56:19.813Z,99269.75
2022-09-17T00:58:54.250Z,99265.12
2022-09-17T01:01:23.949Z,99271.88
2022-09-17T01:03:56.918Z,99270.59
2022-09-17T01:07:20.409Z,99258.94
2022-09-17T01:10:15.494Z,99258.28
2022-09-17T01:13:36.111Z,99266.19
2022-09-17T01:16:46.299Z,99267.88
2022-09-17T01:19:55.326Z,99258.50
2022-09-17T01:22:35.624Z,99252.22
2022-09-17T01:25:26.567Z,99267.84
2022-09-17T01:28:43.296Z,99280.50
2022-09-17T01:31:41.889Z,99293.00
2022-09-17T01:35:10.948Z,99289.63
2022-09-17T01:38:29.514Z,99290.09
2022-09-17T01:41:44.760Z,99300.06
2022-09-17T01:45:12.250Z,99309.78
2022-09-17T01:48:14.370Z,99308.75
2022-09-17T05:50:20.049Z,99189.28
2022-09-17T05:57:53.447Z,99207.97
2022-09-17T07:37:39.965Z,99234.25
2022-09-17T08:28:51.744Z,99284.75
2022-09-17T08:36:31.588Z,99299.69
2022-09-17T08:40:56.613Z,99293.06
2022-09-17T08:43:54.211Z,99286.44
2022-09-17T08:47:51.797Z,99279.44
2022-09-17T08:51:26.226Z,99260.38
2022-09-17T08:55:41.430Z,99250.56
2022-09-17T08:58:56.695Z,99261.28
2022-09-17T09:02:38.644Z,99262.34
2022-09-17T09:14:22.471Z,99278.91
2022-09-17T09:21:31.409Z,99276.84
2022-09-17T09:37:37.356Z,99267.34
2022-09-17T09:44:59.487Z,99277.75
2022-09-17T09:49:04.706Z,99278.28
2022-09-17T09:52:24.587Z,99283.56
2022-09-17T09:56:34.071Z,99271.94
2022-09-17T10:03:12.410Z,99296.31
2022-09-17T10:07:27.362Z,99297.91
2022-09-17T10:22:39.053Z,99264.50
2022-09-17T10:26:05.517Z,99258.81
2022-09-17T10:29:26.277Z,99236.06
2022-09-17T10:33:04.991Z,99217.50
2022-09-17T10:41:21.315Z,99243.44
2022-09-17T10:43:29.561Z,99232.91
2022-09-17T10:50:05.763Z,99224.25
2022-09-17T10:52:54.278Z,99200.22
2022-09-17T10:56:13.899Z,99191.56
2022-09-17T10:59:38.123Z,99167.00
2022-09-17T11:02:51.764Z,99158.03
2022-09-17T11:06:40.247Z,99167.09
2022-09-17T11:10:06.262Z,99194.72
2022-09-17T11:13:18.143Z,99220.47
2022-09-17T11:16:42.103Z,99218.53
2022-09-17T11:21:16.159Z,99196.88
2022-09-17T11:23:44.964Z,99201.91
2022-09-17T11:27:12.812Z,99237.53
2022-09-17T11:30:31.158Z,99244.91
2022-09-17T11:34:28.796Z,99232.25
2022-09-17T11:37:35.623Z,99209.28
2022-09-17T11:40:45.941Z,99208.69
2022-09-17T11:44:29.239Z,99210.44
2022-09-17T11:55:26.069Z,99173.06
2022-09-17T11:59:21.529Z,99142.88
2022-09-17T12:03:04.020Z,99137.38
2022-09-17T12:06:17.040Z,99101.53
2022-09-17T12:09:21.507Z,99111.88
2022-09-17T12:12:49.237Z,99110.97
2022-09-17T12:15:47.751Z,99107.97
2022-09-17T12:19:37.191Z,99107.31
2022-09-17T12:22:31.922Z,99097.94
2022-09-17T12:25:39.110Z,99089.75
2022-09-17T12:29:15.826Z,99078.78
2022-09-17T12:32:52.335Z,99072.41
2022-09-17T12:36:23.895Z,99075.19
2022-09-17T12:43:06.318Z,99061.50
2022-09-17T12:46:31.850Z,99056.63
2022-09-17T12:49:50.796Z,99057.34
2022-09-17T12:53:04.001Z,99086.75
2022-09-17T12:56:09.005Z,99083.88
2022-09-17T13:02:59.810Z,99089.94
2022-09-17T13:06:08.720Z,99094.69
2022-09-17T13:09:19.800Z,99088.81
2022-09-17T13:12:12.347Z,99082.97
2022-09-17T13:16:14.360Z,99079.56
2022-09-17T13:19:32.838Z,99063.91
2022-09-17T13:22:46.886Z,99061.69
2022-09-17T13:25:49.075Z,99063.34
2022-09-17T13:28:52.481Z,99041.25
2022-09-17T13:31:51.622Z,99041.59
2022-09-17T13:38:08.053Z,99030.84
2022-09-17T13:41:27.752Z,99019.84
2022-09-17T13:44:40.147Z,99018.53
2022-09-17T13:50:55.993Z,99037.50
2022-09-17T13:53:59.675Z,99023.06
2022-09-17T13:57:12.517Z,99014.38
2022-09-17T14:00:16.425Z,99016.97
2022-09-17T14:03:59.041Z,99035.09
2022-09-17T14:07:09.953Z,99047.22
2022-09-17T14:10:39.899Z,99057.72
2022-09-17T14:15:14.924Z,99059.19
2022-09-17T14:16:48.871Z,99061.84
2022-09-17T14:20:03.419Z,99064.37
2022-09-17T14:23:15.817Z,99052.97
2022-09-17T14:26:58.499Z,99062.47
2022-09-17T14:32:37.107Z,99067.38
2022-09-17T14:35:51.185Z,99079.53
2022-09-17T14:39:25.552Z,99082.28
2022-09-17T14:42:07.642Z,99083.50
2022-09-17T14:48:48.337Z,99092.97
2022-09-17T14:51:54.142Z,99086.37
2022-09-17T14:55:19.098Z,99074.38
2022-09-17T14:58:05.289Z,99070.47
2022-09-17T15:01:02.323Z,99073.84
2022-09-17T15:03:56.705Z,99075.62
2022-09-17T15:10:12.190Z,99079.63
2022-09-17T15:13:23.080Z,99086.25
2022-09-17T15:16:13.966Z,99093.94
2022-09-17T15:19:20.541Z,99096.47
2022-09-17T15:22:13.930Z,99099.03
2022-09-17T15:25:14.867Z,99093.56
2022-09-17T15:28:07.832Z,99081.97
2022-09-17T15:31:08.530Z,99068.25
2022-09-17T15:34:07.788Z,99066.03
2022-09-17T15:37:12.169Z,99057.06
2022-09-17T15:40:22.267Z,99067.72
2022-09-17T15:42:54.469Z,99057.38
2022-09-17T15:45:55.861Z,99061.28
2022-09-17T15:50:36.180Z,99056.13
2022-09-17T15:51:41.085Z,99034.34
2022-09-17T15:54:47.494Z,99034.97
2022-09-17T15:57:36.102Z,99036.06
2022-09-17T16:00:25.977Z,99048.25
2022-09-17T16:03:43.496Z,99054.72
2022-09-17T16:06:25.186Z,99044.94
2022-09-17T16:10:05.523Z,99044.72
2022-09-17T16:13:05.309Z,99043.34
2022-09-17T16:15:42.315Z,99037.38
2022-09-17T16:19:06.985Z,99034.22
2022-09-17T16:35:24.090Z,99015.50
2022-09-17T16:38:37.768Z,99001.19
2022-09-17T16:42:03.557Z,99005.19
2022-09-17T16:45:16.873Z,99008.94
2022-09-17T16:48:05.662Z,99016.75
2022-09-17T16:51:32.076Z,99032.13
2022-09-17T16:55:23.167Z,99026.63
2022-09-17T16:57:53.405Z,99019.28
2022-09-17T17:01:06.278Z,99014.62
2022-09-17T17:04:36.227Z,99022.44
2022-09-17T17:07:55.333Z,99040.41
2022-09-17T17:11:02.711Z,99046.34
2022-09-17T17:19:48.016Z,99019.53
2022-09-17T17:23:33.290Z,99003.13
2022-09-17T17:29:59.495Z,99010.91
2022-09-17T17:33:49.877Z,99022.53
2022-09-17T17:36:17.598Z,99013.06
2022-09-17T17:39:30.438Z,99024.22
2022-09-17T17:43:00.007Z,99020.66
2022-09-17T17:45:46.751Z,99026.63
2022-09-17T17:49:21.411Z,99022.91
2022-09-17T17:51:57.115Z,99026.94
2022-09-17T17:55:24.355Z,99057.59
2022-09-17T17:58:06.540Z,99054.25
2022-09-17T18:00:50.678Z,99074.53
2022-09-17T18:04:13.245Z,99067.75
2022-09-17T18:07:15.574Z,99067.53
2022-09-17T18:10:15.392Z,99082.91
2022-09-17T18:13:16.002Z,99084.28
2022-09-17T18:16:15.874Z,99093.37
2022-09-17T18:22:20.802Z,99080.53
2022-09-17T18:25:20.192Z,99090.69
2022-09-17T18:28:48.682Z,99079.97
2022-09-17T18:32:00.935Z,99085.44
2022-09-17T18:35:53.853Z,99087.09
2022-09-17T18:45:02.272Z,99095.53
2022-09-17T18:50:33.879Z,99082.75
2022-09-17T19:00:20.740Z,99077.34
2022-09-17T19:03:47.907Z,99061.66
2022-09-17T19:07:03.696Z,99064.59
2022-09-17T19:27:06.258Z,99115.75
2022-09-17T19:33:03.394Z,99107.66
2022-09-17T19:39:25.463Z,99111.53
2022-09-17T19:49:15.680Z,99119.13
2022-09-17T19:52:25.109Z,99122.56
2022-09-17T19:55:36.699Z,99119.41
2022-09-17T19:58:39.867Z,99114.69
2022-09-17T20:03:04.736Z,99114.16
2022-09-17T20:04:48.905Z,99121.22
2022-09-17T20:07:54.305Z,99112.84
2022-09-17T20:11:21.428Z,99115.63
2022-09-17T20:14:30.221Z,99114.16
2022-09-17T20:24:40.151Z,99123.81
2022-09-17T20:28:15.953Z,99120.78
2022-09-17T20:31:51.788Z,99128.59
2022-09-17T20:34:58.344Z,99122.03
2022-09-17T20:41:21.704Z,99139.00
2022-09-17T20:47:38.115Z,99148.47
2022-09-17T20:50:46.703Z,99149.72
2022-09-17T20:53:53.519Z,99151.72
2022-09-17T21:00:42.140Z,99149.41
2022-09-17T21:07:53.209Z,99156.72
2022-09-17T21:13:00.617Z,99151.94
2022-09-17T21:14:55.610Z,99154.00
2022-09-17T21:22:05.277Z,99157.09
2022-09-17T21:33:39.538Z,99170.22
2022-09-17T21:37:23.053Z,99169.47
2022-09-17T21:41:49.294Z,99176.59
2022-09-17T21:44:34.579Z,99175.66
2022-09-17T21:55:55.869Z,99187.28
2022-09-17T23:46:07.354Z,99223.91
2022-09-17T23:50:18.819Z,99237.94
